createdAt,value
2023-08-02T00:01:01.359Z,21.25
2023-08-02T00:02:04.778Z,22.86
2023-08-02T00:03:08.283Z,23.14
2023-08-02T00:04:12.182Z,25.14
2023-08-02T00:05:16.038Z,25.12
2023-08-02T00:06:19.463Z,23.00
2023-08-02T00:07:23.013Z,23.86
2023-08-02T00:08:26.293Z,25.86
2023-08-02T00:09:29.703Z,26.00
2023-08-02T00:10:33.400Z,24.71
2023-08-02T00:11:37.072Z,25.29
2023-08-02T00:12:40.553Z,26.57
2023-08-02T00:13:44.030Z,24.57
2023-08-02T00:14:47.435Z,23.57
2023-08-02T00:15:50.950Z,25.43
2023-08-02T00:16:54.535Z,25.14
2023-08-02T00:17:58.047Z,24.71
2023-08-02T00:19:01.354Z,24.71
2023-08-02T00:20:04.771Z,24.86
2023-08-02T00:21:08.295Z,24.29
2023-08-02T00:22:11.651Z,24.00
2023-08-02T00:23:14.803Z,24.00
2023-08-02T00:24:18.018Z,22.57
2023-08-02T00:25:21.214Z,23.43
2023-08-02T00:26:24.476Z,24.00
2023-08-02T00:27:27.760Z,23.50
2023-08-02T00:28:30.873Z,20.00
2023-08-02T00:29:34.027Z,20.00
2023-08-02T00:30:37.232Z,20.86
2023-08-02T00:31:40.298Z,20.86
2023-08-02T00:32:43.490Z,22.50
2023-08-02T00:33:46.768Z,23.43
2023-08-02T00:34:49.953Z,21.57
2023-08-02T00:35:52.992Z,21.43
2023-08-02T00:36:56.167Z,21.71
2023-08-02T00:37:59.690Z,20.33
2023-08-02T00:39:02.776Z,21.43
2023-08-02T00:40:06.080Z,22.43
2023-08-02T00:41:09.241Z,23.43
2023-08-02T00:42:12.609Z,24.29
2023-08-02T00:43:15.895Z,21.43
2023-08-02T00:44:19.076Z,19.57
2023-08-02T00:45:22.298Z,18.57
2023-08-02T00:46:25.675Z,17.33
2023-08-02T00:47:29.121Z,16.57
2023-08-02T00:48:32.326Z,18.71
2023-08-02T00:49:35.518Z,18.50
2023-08-02T00:50:38.797Z,16.57
2023-08-02T00:51:47.419Z,13.14
2023-08-02T00:52:50.572Z,13.38
2023-08-02T00:53:53.791Z,13.00
2023-08-02T00:54:57.043Z,12.00
2023-08-02T00:56:00.266Z,10.71
2023-08-02T00:57:03.371Z,11.57
2023-08-02T00:58:06.594Z,12.57
2023-08-02T00:59:09.773Z,11.57
2023-08-02T01:00:12.952Z,11.43
2023-08-02T01:01:16.239Z,11.67
2023-08-02T01:02:19.632Z,11.67
2023-08-02T01:03:23.115Z,13.00
2023-08-02T01:04:26.409Z,12.43
2023-08-02T01:05:29.662Z,11.00
2023-08-02T01:06:33.115Z,10.57
2023-08-02T01:07:36.675Z,10.00
2023-08-02T01:08:40.065Z,10.00
2023-08-02T01:09:43.882Z,11.14
2023-08-02T01:10:47.429Z,11.57
2023-08-02T01:11:51.065Z,8.86
2023-08-02T01:12:54.504Z,8.00
2023-08-02T01:14:01.000Z,7.75
2023-08-02T01:15:04.160Z,8.75
2023-08-02T01:16:07.566Z,7.57
2023-08-02T01:17:10.830Z,8.29
2023-08-02T01:18:14.346Z,7.71
2023-08-02T01:19:17.722Z,7.12
2023-08-02T01:20:20.956Z,6.57
2023-08-02T01:21:24.693Z,5.14
2023-08-02T01:22:28.272Z,5.50
2023-08-02T01:23:31.660Z,6.00
2023-08-02T01:24:34.957Z,6.00
2023-08-02T01:25:38.323Z,5.57
2023-08-02T01:26:41.906Z,5.71
2023-08-02T01:27:45.512Z,5.50
2023-08-02T01:28:48.908Z,6.71
2023-08-02T01:29:52.388Z,6.86
2023-08-02T01:30:55.681Z,5.14
2023-08-02T01:31:59.207Z,5.14
2023-08-02T01:33:02.570Z,4.86
2023-08-02T01:34:06.038Z,4.57
2023-08-02T01:35:09.338Z,3.57
2023-08-02T01:36:12.613Z,3.67
2023-08-02T01:37:16.093Z,3.86
2023-08-02T01:38:19.681Z,4.00
2023-08-02T01:39:23.374Z,3.57
2023-08-02T01:40:26.587Z,2.50
2023-08-02T01:41:29.952Z,2.43
2023-08-02T01:42:33.429Z,3.00
2023-08-02T01:43:37.032Z,3.00
2023-08-02T01:44:40.413Z,3.00
2023-08-02T01:45:44.153Z,3.00
2023-08-02T01:46:47.596Z,2.57
2023-08-02T01:47:51.050Z,2.43
2023-08-02T01:48:54.186Z,3.29
2023-08-02T01:49:57.493Z,3.29
2023-08-02T01:51:00.891Z,2.71
2023-08-02T01:52:04.469Z,3.00
2023-08-02T01:53:07.829Z,3.00
2023-08-02T01:54:11.095Z,2.43
2023-08-02T01:55:14.412Z,3.00
2023-08-02T01:56:17.862Z,3.00
2023-08-02T01:57:21.257Z,2.57
2023-08-02T01:58:24.745Z,2.43
2023-08-02T01:59:28.232Z,2.00
2023-08-02T02:00:31.728Z,2.00
2023-08-02T02:01:35.406Z,2.43
2023-08-02T02:02:38.971Z,2.62
2023-08-02T02:03:42.622Z,2.43
2023-08-02T02:04:46.096Z,2.71
2023-08-02T02:05:49.375Z,2.57
2023-08-02T02:06:52.732Z,2.86
2023-08-02T02:07:56.152Z,3.29
2023-08-02T02:08:59.334Z,3.00
2023-08-02T02:10:02.517Z,2.57
2023-08-02T02:11:05.692Z,2.00
2023-08-02T02:12:08.887Z,2.43
2023-08-02T02:13:12.181Z,1.86
2023-08-02T02:14:15.338Z,2.00
2023-08-02T02:15:18.737Z,2.00
2023-08-02T02:16:22.006Z,1.71
2023-08-02T02:17:25.194Z,2.00
2023-08-02T02:18:28.373Z,2.00
2023-08-02T02:19:31.565Z,2.29
2023-08-02T02:20:34.839Z,2.14
2023-08-02T02:21:39.273Z,1.86
2023-08-02T02:22:42.314Z,2.50
2023-08-02T02:23:45.512Z,1.00
2023-08-02T02:24:48.693Z,0.33
2023-08-02T02:25:51.783Z,1.17
2023-08-02T02:26:54.968Z,0.67
2023-08-02T02:27:58.137Z,1.14
2023-08-02T02:29:01.338Z,2.43
2023-08-02T02:30:04.539Z,2.33
2023-08-02T02:31:07.709Z,1.57
2023-08-02T02:32:10.926Z,1.43
2023-08-02T02:33:14.150Z,1.57
2023-08-02T02:34:17.336Z,2.00
2023-08-02T02:35:20.528Z,1.57
2023-08-02T02:36:23.611Z,1.86
2023-08-02T02:37:26.787Z,2.00
2023-08-02T02:38:29.966Z,2.43
2023-08-02T02:39:33.455Z,3.57
2023-08-02T02:40:36.858Z,2.86
2023-08-02T02:41:40.195Z,3.00
2023-08-02T02:42:43.616Z,2.14
2023-08-02T02:43:47.207Z,1.29
2023-08-02T02:44:50.600Z,1.71
2023-08-02T02:45:55.686Z,1.57
2023-08-02T02:46:58.522Z,1.50
2023-08-02T02:48:02.025Z,2.29
2023-08-02T02:49:05.460Z,2.00
2023-08-02T02:50:08.987Z,1.00
2023-08-02T02:51:12.030Z,1.86
2023-08-02T02:52:15.529Z,2.00
2023-08-02T02:53:19.111Z,2.43
2023-08-02T02:54:22.401Z,2.57
2023-08-02T02:55:25.796Z,2.00
2023-08-02T02:56:29.068Z,1.71
2023-08-02T02:57:32.386Z,2.29
2023-08-02T02:58:35.743Z,1.57
2023-08-02T02:59:39.428Z,1.43
2023-08-02T03:00:42.890Z,2.50
2023-08-02T03:01:46.738Z,2.29
2023-08-02T03:02:50.236Z,1.75
2023-08-02T03:03:53.709Z,2.00
2023-08-02T03:04:57.080Z,1.57
2023-08-02T03:06:00.463Z,1.43
2023-08-02T03:07:03.913Z,2.00
2023-08-02T03:08:07.244Z,2.00
2023-08-02T03:09:10.630Z,1.57
2023-08-02T03:10:14.869Z,1.86
2023-08-02T03:11:17.914Z,2.50
2023-08-02T03:12:21.114Z,1.86
2023-08-02T03:13:24.274Z,2.00
2023-08-02T03:14:27.421Z,2.14
2023-08-02T03:15:30.554Z,2.86
2023-08-02T03:16:33.892Z,2.14
2023-08-02T03:17:37.128Z,1.29
2023-08-02T03:18:40.400Z,1.14
2023-08-02T03:19:43.684Z,1.29
2023-08-02T03:20:46.957Z,1.43
2023-08-02T03:21:50.145Z,2.00
2023-08-02T03:22:53.321Z,1.57
2023-08-02T03:23:56.418Z,1.00
2023-08-02T03:24:59.792Z,1.57
2023-08-02T03:26:03.080Z,1.00
2023-08-02T03:27:06.152Z,1.00
2023-08-02T03:28:09.440Z,1.00
2023-08-02T03:29:12.629Z,1.43
2023-08-02T03:30:15.900Z,1.57
2023-08-02T03:31:19.137Z,1.00
2023-08-02T03:32:22.312Z,1.00
2023-08-02T03:33:25.547Z,1.43
2023-08-02T03:34:28.730Z,1.67
2023-08-02T03:35:32.024Z,1.00
2023-08-02T03:36:35.295Z,2.43
2023-08-02T03:37:38.684Z,1.57
2023-08-02T03:38:41.768Z,2.00
2023-08-02T03:39:44.944Z,1.71
2023-08-02T03:40:48.124Z,1.43
2023-08-02T03:41:58.782Z,2.00
2023-08-02T03:43:01.872Z,0.33
2023-08-02T03:44:04.955Z,1.00
2023-08-02T03:45:08.132Z,1.00
2023-08-02T03:46:11.225Z,1.43
2023-08-02T03:47:14.286Z,2.00
2023-08-02T03:48:17.695Z,1.57
2023-08-02T03:49:21.063Z,1.00
2023-08-02T03:50:24.442Z,1.00
2023-08-02T03:51:27.838Z,1.00
2023-08-02T03:52:31.083Z,1.00
2023-08-02T03:53:34.453Z,1.33
2023-08-02T03:54:37.811Z,2.00
2023-08-02T03:55:41.055Z,2.00
2023-08-02T03:56:44.748Z,1.57
2023-08-02T03:57:48.781Z,0.88
2023-08-02T03:58:52.063Z,0.43
2023-08-02T03:59:55.534Z,1.43
2023-08-02T04:00:58.723Z,2.25
2023-08-02T04:02:02.269Z,2.17
2023-08-02T04:03:05.764Z,1.57
2023-08-02T04:04:09.210Z,1.00
2023-08-02T04:05:12.574Z,1.43
2023-08-02T04:06:16.040Z,1.57
2023-08-02T04:07:19.452Z,1.00
2023-08-02T04:08:23.040Z,1.00
2023-08-02T04:09:26.337Z,1.00
2023-08-02T04:10:29.813Z,1.43
2023-08-02T04:11:33.317Z,2.00
2023-08-02T04:12:36.835Z,1.57
2023-08-02T04:13:40.412Z,1.43
2023-08-02T04:14:43.802Z,1.00
2023-08-02T04:15:47.396Z,1.00
2023-08-02T04:16:50.464Z,1.43
2023-08-02T04:17:53.951Z,1.57
2023-08-02T04:18:57.323Z,1.00
2023-08-02T04:20:00.915Z,1.00
2023-08-02T04:21:04.416Z,1.00
2023-08-02T04:22:07.897Z,1.86
2023-08-02T04:23:11.292Z,2.57
2023-08-02T04:24:14.578Z,1.57
2023-08-02T04:25:17.945Z,1.57
2023-08-02T04:26:21.227Z,1.00
2023-08-02T04:27:24.614Z,1.43
2023-08-02T04:28:28.029Z,1.57
2023-08-02T04:29:31.297Z,1.43
2023-08-02T04:30:34.596Z,1.67
2023-08-02T04:31:37.997Z,1.33
2023-08-02T04:32:41.577Z,1.50
2023-08-02T04:33:45.149Z,1.00
2023-08-02T04:34:48.546Z,1.71
2023-08-02T04:35:51.832Z,1.57
2023-08-02T04:36:55.323Z,1.86
2023-08-02T04:37:58.935Z,2.14
2023-08-02T04:39:02.480Z,1.00
2023-08-02T04:40:05.995Z,1.43
2023-08-02T04:41:09.459Z,1.57
2023-08-02T04:42:12.964Z,1.43
2023-08-02T04:43:16.234Z,2.00
2023-08-02T04:44:19.538Z,2.14
2023-08-02T04:45:23.008Z,1.00
2023-08-02T04:46:26.402Z,1.29
2023-08-02T04:47:29.906Z,1.00
2023-08-02T04:48:33.281Z,1.00
2023-08-02T04:49:36.825Z,1.00
2023-08-02T04:50:40.165Z,1.00
2023-08-02T04:51:43.449Z,1.71
2023-08-02T04:52:46.728Z,1.00
2023-08-02T04:53:50.080Z,1.00
2023-08-02T04:54:53.388Z,1.33
2023-08-02T04:55:56.900Z,1.57
2023-08-02T04:57:03.139Z,1.43
2023-08-02T04:58:06.491Z,1.50
2023-08-02T04:59:09.905Z,1.17
2023-08-02T05:00:13.203Z,1.00
2023-08-02T05:01:19.388Z,1.33
2023-08-02T05:02:22.732Z,2.00
2023-08-02T05:03:26.021Z,2.00
2023-08-02T05:04:29.320Z,1.57
2023-08-02T05:05:32.370Z,1.43
2023-08-02T05:06:35.479Z,1.43
2023-08-02T05:07:40.960Z,1.57
2023-08-02T05:08:42.946Z,1.00
2023-08-02T05:09:46.223Z,1.86
2023-08-02T05:10:49.332Z,2.57
2023-08-02T05:11:53.123Z,2.29
2023-08-02T05:12:56.387Z,2.00
2023-08-02T05:13:59.466Z,2.00
2023-08-02T05:15:02.758Z,2.00
2023-08-02T05:16:06.076Z,1.71
2023-08-02T05:17:09.533Z,1.43
2023-08-02T05:18:12.933Z,2.00
2023-08-02T05:19:16.200Z,1.67
2023-08-02T05:20:19.599Z,1.33
2023-08-02T05:21:22.971Z,2.14
2023-08-02T05:22:26.290Z,2.57
2023-08-02T05:23:29.435Z,1.43
2023-08-02T05:24:32.481Z,1.43
2023-08-02T05:25:35.638Z,2.00
2023-08-02T05:26:38.775Z,1.57
2023-08-02T05:27:42.374Z,1.43
2023-08-02T05:28:45.653Z,2.43
2023-08-02T05:29:48.948Z,2.14
2023-08-02T05:30:52.022Z,1.00
2023-08-02T05:31:55.158Z,1.29
2023-08-02T05:32:58.355Z,1.57
2023-08-02T05:34:01.454Z,2.00
2023-08-02T05:35:04.549Z,1.00
2023-08-02T05:36:07.625Z,1.00
2023-08-02T05:37:10.902Z,1.00
2023-08-02T05:38:14.099Z,1.43
2023-08-02T05:39:17.297Z,2.00
2023-08-02T05:40:20.549Z,2.57
2023-08-02T05:41:23.738Z,1.43
2023-08-02T05:42:26.824Z,2.00
2023-08-02T05:43:29.995Z,2.00
2023-08-02T05:44:33.183Z,2.00
2023-08-02T05:45:36.403Z,2.00
2023-08-02T05:46:39.539Z,1.67
2023-08-02T05:47:42.771Z,1.29
2023-08-02T05:48:46.007Z,1.43
2023-08-02T05:49:49.094Z,1.57
2023-08-02T05:50:52.334Z,1.00
2023-08-02T05:51:55.366Z,1.43
2023-08-02T05:52:58.536Z,1.33
2023-08-02T05:54:01.916Z,2.00
2023-08-02T05:55:05.194Z,1.29
2023-08-02T05:56:08.426Z,1.00
2023-08-02T05:57:11.664Z,1.33
2023-08-02T05:58:14.949Z,2.43
2023-08-02T05:59:18.129Z,3.00
2023-08-02T06:00:21.185Z,2.29
2023-08-02T06:01:24.437Z,1.86
2023-08-02T06:02:27.630Z,2.43
2023-08-02T06:03:30.930Z,2.14
2023-08-02T06:04:34.148Z,2.57
2023-08-02T06:05:37.340Z,2.43
2023-08-02T06:06:40.565Z,2.57
2023-08-02T06:07:43.996Z,2.00
2023-08-02T06:08:47.480Z,2.00
2023-08-02T06:09:50.673Z,1.57
2023-08-02T06:10:53.792Z,1.86
2023-08-02T06:11:57.234Z,2.00
2023-08-02T06:13:00.429Z,2.00
2023-08-02T06:14:03.604Z,2.00
2023-08-02T06:15:07.326Z,2.43
2023-08-02T06:16:10.776Z,2.57
2023-08-02T06:17:13.960Z,2.00
2023-08-02T06:18:17.353Z,1.57
2023-08-02T06:19:20.738Z,1.43
2023-08-02T06:20:24.129Z,1.57
2023-08-02T06:21:27.540Z,1.00
2023-08-02T06:22:30.995Z,1.43
2023-08-02T06:23:34.099Z,1.57
2023-08-02T06:24:37.467Z,1.71
2023-08-02T06:25:40.967Z,2.00
2023-08-02T06:26:45.483Z,2.29
2023-08-02T06:27:48.761Z,1.50
2023-08-02T06:28:52.034Z,1.50
2023-08-02T06:29:55.420Z,2.00
2023-08-02T06:30:58.929Z,1.57
2023-08-02T06:32:02.404Z,1.43
2023-08-02T06:33:05.845Z,2.00
2023-08-02T06:34:09.292Z,2.00
2023-08-02T06:35:13.169Z,2.00
2023-08-02T06:36:16.567Z,2.00
2023-08-02T06:37:20.056Z,2.00
2023-08-02T06:38:23.449Z,2.00
2023-08-02T06:39:26.832Z,2.00
2023-08-02T06:40:30.085Z,1.57
2023-08-02T06:41:33.405Z,1.14
2023-08-02T06:42:36.773Z,2.00
2023-08-02T06:43:40.289Z,2.00
2023-08-02T06:44:43.928Z,1.57
2023-08-02T06:45:47.149Z,1.29
2023-08-02T06:46:50.609Z,1.83
2023-08-02T06:47:53.957Z,2.00
2023-08-02T06:48:57.404Z,1.57
2023-08-02T06:50:00.701Z,1.00
2023-08-02T06:51:04.194Z,1.00
2023-08-02T06:52:07.563Z,1.43
2023-08-02T06:53:11.057Z,2.00
2023-08-02T06:54:14.348Z,1.57
2023-08-02T06:55:17.519Z,1.86
2023-08-02T06:56:20.632Z,2.14
2023-08-02T06:57:23.797Z,1.00
2023-08-02T06:58:26.919Z,1.43
2023-08-02T06:59:30.058Z,2.00
2023-08-02T07:00:33.205Z,2.00
2023-08-02T07:01:36.627Z,2.33
2023-08-02T07:02:39.763Z,2.14
2023-08-02T07:03:43.267Z,1.00
2023-08-02T07:04:46.500Z,1.00
2023-08-02T07:05:49.886Z,1.33
2023-08-02T07:06:53.136Z,1.57
2023-08-02T07:07:56.300Z,1.00
2023-08-02T07:08:59.293Z,1.67
2023-08-02T07:10:02.573Z,2.00
2023-08-02T07:11:05.757Z,2.00
2023-08-02T07:12:08.957Z,2.00
2023-08-02T07:13:12.317Z,2.00
2023-08-02T07:14:17.935Z,2.00
2023-08-02T07:15:21.050Z,2.00
2023-08-02T07:16:24.477Z,2.00
2023-08-02T07:17:27.542Z,2.43
2023-08-02T07:18:30.812Z,2.57
2023-08-02T07:19:33.897Z,2.00
2023-08-02T07:20:37.078Z,1.14
2023-08-02T07:21:40.689Z,1.00
2023-08-02T07:22:44.239Z,1.43
2023-08-02T07:23:47.531Z,1.57
2023-08-02T07:24:50.711Z,0.57
2023-08-02T07:25:55.291Z,1.00
2023-08-02T07:26:58.096Z,2.00
2023-08-02T07:28:01.429Z,2.00
2023-08-02T07:29:04.768Z,2.00
2023-08-02T07:30:07.939Z,2.00
2023-08-02T07:31:11.103Z,1.00
2023-08-02T07:32:14.334Z,1.57
2023-08-02T07:33:17.406Z,2.00
2023-08-02T07:34:20.478Z,2.00
2023-08-02T07:35:23.658Z,1.57
2023-08-02T07:36:26.940Z,1.14
2023-08-02T07:37:30.096Z,1.43
2023-08-02T07:38:33.446Z,2.00
2023-08-02T07:39:36.993Z,2.00
2023-08-02T07:40:40.586Z,1.86
2023-08-02T07:41:44.162Z,1.57
2023-08-02T07:42:47.769Z,1.86
2023-08-02T07:43:51.084Z,1.43
2023-08-02T07:44:54.456Z,2.43
2023-08-02T07:45:57.768Z,2.86
2023-08-02T07:47:00.917Z,2.29
2023-08-02T07:48:04.231Z,2.00
2023-08-02T07:49:07.383Z,1.67
2023-08-02T07:50:10.389Z,1.67
2023-08-02T07:51:13.637Z,3.00
2023-08-02T07:52:17.105Z,2.43
2023-08-02T07:53:20.225Z,2.14
2023-08-02T07:54:23.297Z,2.00
2023-08-02T07:55:26.566Z,2.00
2023-08-02T07:56:29.644Z,2.00
2023-08-02T07:57:32.829Z,2.00
2023-08-02T07:58:36.015Z,2.00
2023-08-02T07:59:39.412Z,2.00
2023-08-02T08:00:42.577Z,2.29
2023-08-02T08:01:46.101Z,3.00
2023-08-02T08:02:49.596Z,1.71
2023-08-02T08:03:53.064Z,2.43
2023-08-02T08:04:57.229Z,2.57
2023-08-02T08:06:01.084Z,1.50
2023-08-02T08:07:04.538Z,1.43
2023-08-02T08:08:07.762Z,2.00
2023-08-02T08:09:11.055Z,2.43
2023-08-02T08:10:14.080Z,3.00
2023-08-02T08:11:17.476Z,3.67
2023-08-02T08:12:20.867Z,2.67
2023-08-02T08:13:24.362Z,2.86
2023-08-02T08:14:27.831Z,3.43
2023-08-02T08:15:31.218Z,2.57
2023-08-02T08:16:34.657Z,2.86
2023-08-02T08:17:38.069Z,3.57
2023-08-02T08:18:41.273Z,3.43
2023-08-02T08:19:44.569Z,4.33
2023-08-02T08:20:47.947Z,4.14
2023-08-02T08:21:51.235Z,2.71
2023-08-02T08:22:54.430Z,2.57
2023-08-02T08:23:57.601Z,3.57
2023-08-02T08:25:00.773Z,3.43
2023-08-02T08:26:03.916Z,4.00
2023-08-02T08:27:07.042Z,4.00
2023-08-02T08:28:10.128Z,4.00
2023-08-02T08:29:13.097Z,4.57
2023-08-02T08:30:16.176Z,4.14
2023-08-02T08:31:19.378Z,3.67
2023-08-02T08:32:22.532Z,3.29
2023-08-02T08:33:25.715Z,3.57
2023-08-02T08:34:28.777Z,2.43
2023-08-02T08:35:31.675Z,4.00
2023-08-02T08:36:34.749Z,4.00
2023-08-02T08:37:37.801Z,3.57
2023-08-02T08:38:40.813Z,3.67
2023-08-02T08:39:43.991Z,4.14
2023-08-02T08:40:47.173Z,3.57
2023-08-02T08:41:50.253Z,3.17
2023-08-02T08:42:53.431Z,3.00
2023-08-02T08:43:56.636Z,3.00
2023-08-02T08:44:59.793Z,3.86
2023-08-02T08:46:02.963Z,3.57
2023-08-02T08:47:06.172Z,3.00
2023-08-02T08:48:09.760Z,4.00
2023-08-02T08:49:12.966Z,4.33
2023-08-02T08:50:16.449Z,3.33
2023-08-02T08:51:19.604Z,3.00
2023-08-02T08:52:22.895Z,2.67
2023-08-02T08:53:26.203Z,2.67
2023-08-02T08:54:29.585Z,3.71
2023-08-02T08:55:32.948Z,3.57
2023-08-02T08:56:36.141Z,4.00
2023-08-02T08:57:40.234Z,3.57
2023-08-02T08:58:43.735Z,4.00
2023-08-02T08:59:46.920Z,4.43
2023-08-02T09:00:50.204Z,5.14
2023-08-02T09:01:53.418Z,6.00
2023-08-02T09:02:56.611Z,7.43
2023-08-02T09:03:59.767Z,6.43
2023-08-02T09:05:02.875Z,5.86
2023-08-02T09:06:06.044Z,5.50
2023-08-02T09:07:09.070Z,7.33
2023-08-02T09:08:12.261Z,6.57
2023-08-02T09:09:15.312Z,5.86
2023-08-02T09:10:18.540Z,5.50
2023-08-02T09:11:21.598Z,4.00
2023-08-02T09:12:24.703Z,3.57
2023-08-02T09:13:27.743Z,3.57
2023-08-02T09:14:30.832Z,4.33
2023-08-02T09:15:33.941Z,3.14
2023-08-02T09:16:37.241Z,2.57
2023-08-02T09:17:40.932Z,2.29
2023-08-02T09:18:44.115Z,3.00
2023-08-02T09:19:48.288Z,3.00
2023-08-02T09:20:51.822Z,3.00
2023-08-02T09:21:55.290Z,3.29
2023-08-02T09:22:58.650Z,3.57
2023-08-02T09:24:02.079Z,3.43
2023-08-02T09:25:05.312Z,3.57
2023-08-02T09:26:08.597Z,3.43
2023-08-02T09:27:12.001Z,4.00
2023-08-02T09:28:15.171Z,3.71
2023-08-02T09:29:19.519Z,4.14
2023-08-02T09:30:22.964Z,4.00
2023-08-02T09:31:26.351Z,4.33
2023-08-02T09:32:29.833Z,4.43
2023-08-02T09:33:33.349Z,4.50
2023-08-02T09:34:36.739Z,4.86
2023-08-02T09:35:39.797Z,5.14
2023-08-02T09:36:43.081Z,3.86
2023-08-02T09:37:46.177Z,3.67
2023-08-02T09:38:49.353Z,3.43
2023-08-02T09:39:52.375Z,3.00
2023-08-02T09:41:35.837Z,3.43
2023-08-02T09:42:01.727Z,5.00
2023-08-02T09:43:03.832Z,5.50
2023-08-02T09:44:06.980Z,5.33
2023-08-02T09:45:10.159Z,5.57
2023-08-02T09:46:13.214Z,5.86
2023-08-02T09:47:16.341Z,8.00
2023-08-02T09:48:19.416Z,8.86
2023-08-02T09:49:22.536Z,11.33
2023-08-02T09:50:25.782Z,12.57
2023-08-02T09:51:29.059Z,12.00
2023-08-02T09:52:32.345Z,10.71
2023-08-02T09:53:35.635Z,8.14
2023-08-02T09:54:39.000Z,7.43
2023-08-02T09:55:42.272Z,8.33
2023-08-02T09:56:45.493Z,8.57
2023-08-02T09:57:48.777Z,7.57
2023-08-02T09:58:52.257Z,5.71
2023-08-02T09:59:55.649Z,5.29
2023-08-02T10:00:59.105Z,6.14
2023-08-02T10:02:02.627Z,5.00
2023-08-02T10:03:15.544Z,5.00
2023-08-02T10:04:10.534Z,5.00
2023-08-02T10:05:13.621Z,4.67
2023-08-02T10:06:16.916Z,4.43
2023-08-02T10:07:20.059Z,4.57
2023-08-02T10:08:23.262Z,4.71
2023-08-02T10:09:26.340Z,4.43
2023-08-02T10:10:29.617Z,5.00
2023-08-02T10:11:32.930Z,5.00
2023-08-02T10:12:36.193Z,5.43
2023-08-02T10:13:39.468Z,5.33
2023-08-02T10:14:42.768Z,4.00
2023-08-02T10:15:45.860Z,3.57
2023-08-02T10:16:49.068Z,3.43
2023-08-02T10:17:53.473Z,4.00
2023-08-02T10:18:56.294Z,4.37
2023-08-02T10:19:59.683Z,3.50
2023-08-02T10:21:02.818Z,3.57
2023-08-02T10:22:05.969Z,3.43
2023-08-02T10:23:08.928Z,3.00
2023-08-02T10:24:15.172Z,3.00
2023-08-02T10:25:18.483Z,3.00
2023-08-02T10:26:21.851Z,3.57
2023-08-02T10:27:25.138Z,2.14
2023-08-02T10:28:28.513Z,2.00
2023-08-02T10:29:31.812Z,3.29
2023-08-02T10:30:35.297Z,3.14
2023-08-02T10:31:38.554Z,2.43
2023-08-02T10:32:42.022Z,3.43
2023-08-02T10:33:45.468Z,4.00
2023-08-02T10:34:49.155Z,3.14
2023-08-02T10:35:53.941Z,2.87
2023-08-02T10:36:57.046Z,2.62
2023-08-02T10:38:00.459Z,3.00
2023-08-02T10:39:03.714Z,3.43
2023-08-02T10:40:07.221Z,3.57
2023-08-02T10:41:10.637Z,3.00
2023-08-02T10:42:13.779Z,3.43
2023-08-02T10:43:17.208Z,4.00
2023-08-02T10:44:20.558Z,4.14
2023-08-02T10:45:23.832Z,3.86
2023-08-02T10:46:27.190Z,5.00
2023-08-02T10:47:30.496Z,5.00
2023-08-02T10:48:33.897Z,5.00
2023-08-02T10:49:37.209Z,5.00
2023-08-02T10:50:40.476Z,4.14
2023-08-02T10:51:43.970Z,3.57
2023-08-02T10:52:47.248Z,3.43
2023-08-02T10:53:51.760Z,3.14
2023-08-02T10:54:55.973Z,2.37
2023-08-02T10:55:58.934Z,3.00
2023-08-02T10:57:02.014Z,3.14
2023-08-02T10:58:05.244Z,2.00
2023-08-02T10:59:08.349Z,2.43
2023-08-02T11:00:11.482Z,2.67
2023-08-02T11:01:14.779Z,4.14
2023-08-02T11:02:17.813Z,5.00
2023-08-02T11:03:20.963Z,3.00
2023-08-02T11:04:24.078Z,2.86
2023-08-02T11:05:27.181Z,3.00
2023-08-02T11:06:31.035Z,2.67
2023-08-02T11:07:34.345Z,3.00
2023-08-02T11:08:37.416Z,3.00
2023-08-02T11:09:40.475Z,2.00
2023-08-02T11:10:43.692Z,2.00
2023-08-02T11:11:46.858Z,2.00
2023-08-02T11:12:50.147Z,2.43
2023-08-02T11:13:53.543Z,3.29
2023-08-02T11:14:57.483Z,3.43
2023-08-02T11:16:01.152Z,3.37
2023-08-02T11:17:13.446Z,3.00
2023-08-02T11:18:10.783Z,3.00
2023-08-02T11:19:13.246Z,3.25
2023-08-02T11:20:16.813Z,3.00
2023-08-02T11:21:20.374Z,3.00
2023-08-02T11:22:23.704Z,2.67
2023-08-02T11:23:27.180Z,2.43
2023-08-02T11:24:31.859Z,3.00
2023-08-02T11:28:48.213Z,3.87
2023-08-02T11:29:51.704Z,3.57
2023-08-02T11:30:57.752Z,3.00
2023-08-02T11:31:59.435Z,2.62
2023-08-02T11:33:02.913Z,2.00
2023-08-02T11:34:06.073Z,2.00
2023-08-02T11:35:09.225Z,1.43
2023-08-02T11:36:12.235Z,2.00
2023-08-02T11:37:15.206Z,1.83
2023-08-02T11:38:18.405Z,2.86
2023-08-02T11:39:21.792Z,2.57
2023-08-02T11:40:27.372Z,2.00
2023-08-02T11:41:28.994Z,3.00
2023-08-02T11:42:32.022Z,3.57
2023-08-02T11:43:35.230Z,3.00
2023-08-02T11:44:39.365Z,1.43
2023-08-02T11:45:42.504Z,2.50
2023-08-02T11:46:46.068Z,3.67
2023-08-02T11:47:53.503Z,4.00
2023-08-02T11:48:53.452Z,3.50
2023-08-02T11:49:56.474Z,4.00
2023-08-02T11:51:01.622Z,2.33
2023-08-02T11:52:03.763Z,2.50
2023-08-02T11:53:06.929Z,3.00
2023-08-02T11:54:09.971Z,3.00
2023-08-02T11:55:13.079Z,2.50
2023-08-02T11:56:16.259Z,2.00
2023-08-02T11:57:19.243Z,1.57
2023-08-02T11:58:22.444Z,2.00
2023-08-02T11:59:25.499Z,2.00
2023-08-02T12:00:28.596Z,2.00
2023-08-02T12:01:31.897Z,2.29
2023-08-02T12:02:35.092Z,1.86
2023-08-02T12:03:38.511Z,2.00
2023-08-02T12:04:41.640Z,1.57
2023-08-02T12:05:44.921Z,1.00
2023-08-02T12:06:47.991Z,1.33
2023-08-02T12:07:51.398Z,2.00
2023-08-02T12:08:54.456Z,2.00
2023-08-02T12:09:57.750Z,1.57
2023-08-02T12:11:00.816Z,1.43
2023-08-02T12:12:03.909Z,2.00
2023-08-02T12:13:06.984Z,2.29
2023-08-02T12:14:10.062Z,2.14
2023-08-02T12:15:13.238Z,1.33
2023-08-02T12:16:16.467Z,2.00
2023-08-02T12:17:19.613Z,2.00
2023-08-02T12:18:22.891Z,2.00
2023-08-02T12:19:26.091Z,2.00
2023-08-02T12:20:29.113Z,1.57
2023-08-02T12:21:32.548Z,1.33
2023-08-02T12:22:35.624Z,2.00
2023-08-02T12:23:38.917Z,1.57
2023-08-02T12:24:41.970Z,1.43
2023-08-02T12:25:47.337Z,2.00
2023-08-02T12:26:49.368Z,2.00
2023-08-02T12:27:52.476Z,2.00
2023-08-02T12:28:55.554Z,2.00
2023-08-02T12:29:59.034Z,1.57
2023-08-02T12:31:02.325Z,1.00
2023-08-02T12:32:05.726Z,0.71
2023-08-02T12:33:08.811Z,1.43
2023-08-02T12:34:11.796Z,1.57
2023-08-02T12:35:14.896Z,1.33
2023-08-02T12:36:18.108Z,2.00
2023-08-02T12:37:21.189Z,2.43
2023-08-02T12:38:24.482Z,2.57
2023-08-02T12:39:27.862Z,2.00
2023-08-02T12:40:31.149Z,1.57
2023-08-02T12:41:34.553Z,1.43
2023-08-02T12:42:45.561Z,2.00
2023-08-02T12:43:42.120Z,2.00
2023-08-02T12:44:45.309Z,2.00
2023-08-02T12:45:48.740Z,2.00
2023-08-02T12:46:52.079Z,3.57
2023-08-02T12:47:55.530Z,11.14
2023-08-02T12:48:58.959Z,13.71
2023-08-02T12:50:02.244Z,5.25
2023-08-02T12:51:05.647Z,3.83
2023-08-02T12:52:09.009Z,5.33
2023-08-02T12:53:12.400Z,5.57
2023-08-02T12:54:15.799Z,7.43
2023-08-02T12:55:19.218Z,11.00
2023-08-02T12:56:22.362Z,9.57
2023-08-02T12:57:25.494Z,8.71
2023-08-02T12:58:28.759Z,11.17
2023-08-02T12:59:31.849Z,9.86
2023-08-02T13:00:35.170Z,10.14
2023-08-02T13:01:38.508Z,10.43
2023-08-02T13:02:42.016Z,8.43
2023-08-02T13:03:45.520Z,9.71
2023-08-02T13:04:49.037Z,6.29
2023-08-02T13:05:52.438Z,3.57
2023-08-02T13:06:57.413Z,3.00
2023-08-02T13:08:00.392Z,2.50
2023-08-02T13:09:03.720Z,2.00
2023-08-02T13:10:06.964Z,3.17
2023-08-02T13:11:10.517Z,3.50
2023-08-02T13:12:16.101Z,3.00
2023-08-02T13:13:18.393Z,3.00
2023-08-02T13:14:21.687Z,3.14
2023-08-02T13:15:24.756Z,2.14
2023-08-02T13:16:28.159Z,2.43
2023-08-02T13:17:31.847Z,3.00
2023-08-02T13:18:34.866Z,2.86
2023-08-02T13:19:38.201Z,2.43
2023-08-02T13:20:41.488Z,2.57
2023-08-02T13:21:44.777Z,2.86
2023-08-02T13:22:48.155Z,3.14
2023-08-02T13:23:51.446Z,2.43
2023-08-02T13:24:54.692Z,2.57
2023-08-02T13:25:57.989Z,3.00
2023-08-02T13:27:01.302Z,3.00
2023-08-02T13:28:04.666Z,2.57
2023-08-02T13:29:08.055Z,2.43
2023-08-02T13:30:11.411Z,3.00
2023-08-02T13:31:14.776Z,3.57
2023-08-02T13:32:18.126Z,3.14
2023-08-02T13:33:21.510Z,2.57
2023-08-02T13:34:24.791Z,3.86
2023-08-02T13:35:28.057Z,3.00
2023-08-02T13:36:31.452Z,2.86
2023-08-02T13:37:34.761Z,2.57
2023-08-02T13:38:37.858Z,2.43
2023-08-02T13:39:41.032Z,2.57
2023-08-02T13:40:44.442Z,2.43
2023-08-02T13:41:47.768Z,3.00
2023-08-02T13:42:51.264Z,2.86
2023-08-02T13:43:54.448Z,2.43
2023-08-02T13:44:57.948Z,3.00
2023-08-02T13:46:01.077Z,3.14
2023-08-02T13:47:04.176Z,3.00
2023-08-02T13:48:07.327Z,3.00
2023-08-02T13:49:10.539Z,2.57
2023-08-02T13:50:13.757Z,3.43
2023-08-02T13:51:16.932Z,3.57
2023-08-02T13:52:20.116Z,2.57
2023-08-02T13:53:23.148Z,2.83
2023-08-02T13:54:26.372Z,3.57
2023-08-02T13:55:29.559Z,3.57
2023-08-02T13:56:32.717Z,3.00
2023-08-02T13:57:35.917Z,3.00
2023-08-02T13:58:39.228Z,2.67
2023-08-02T13:59:42.388Z,2.43
2023-08-02T14:00:45.573Z,3.00
2023-08-02T14:01:48.890Z,3.00
2023-08-02T14:02:52.499Z,3.00
2023-08-02T14:03:55.751Z,3.86